createdAt,value
2023-05-04T00:00:44.830Z,4.50
2023-05-04T00:03:11.961Z,4.63
2023-05-04T00:05:39.027Z,4.88
2023-05-04T00:08:06.050Z,4.85
2023-05-04T00:10:33.036Z,4.10
2023-05-04T00:13:00.106Z,4.90
2023-05-04T00:15:28.164Z,4.68
2023-05-04T00:17:55.363Z,4.85
2023-05-04T00:20:22.470Z,4.78
2023-05-04T00:22:49.518Z,5.07
2023-05-04T00:25:16.876Z,4.72
2023-05-04T00:27:43.886Z,4.93
2023-05-04T00:30:11.821Z,5.13
2023-05-04T00:32:38.853Z,5.35
2023-05-04T00:35:06.886Z,4.63
2023-05-04T00:37:33.891Z,5.18
2023-05-04T00:40:00.859Z,4.28
2023-05-04T00:42:27.846Z,5.05
2023-05-04T00:44:54.805Z,4.90
2023-05-04T00:47:23.226Z,4.97
2023-05-04T00:49:52.675Z,4.47
2023-05-04T00:52:21.028Z,4.40
2023-05-04T00:54:48.204Z,4.53
2023-05-04T00:57:17.269Z,4.40
2023-05-04T00:59:44.286Z,4.32
2023-05-04T01:02:11.378Z,4.90
2023-05-04T01:04:38.739Z,5.00
2023-05-04T01:07:30.402Z,4.78
2023-05-04T01:10:10.652Z,4.97
2023-05-04T01:13:10.045Z,4.55
2023-05-04T01:15:37.505Z,5.10
2023-05-04T01:18:04.694Z,5.22
2023-05-04T01:20:32.099Z,5.15
2023-05-04T01:23:00.153Z,4.63
2023-05-04T01:25:48.873Z,4.68
2023-05-04T01:28:27.559Z,4.95
2023-05-04T01:30:59.970Z,4.45
2023-05-04T01:33:29.030Z,4.43
2023-05-04T01:35:56.581Z,4.80
2023-05-04T01:38:23.858Z,4.10
2023-05-04T01:40:50.855Z,4.78
2023-05-04T01:43:17.858Z,4.95
2023-05-04T01:45:44.917Z,4.57
2023-05-04T01:48:12.334Z,5.00
2023-05-04T01:50:39.364Z,5.03
2023-05-04T01:53:06.383Z,5.13
2023-05-04T01:55:33.487Z,4.78
2023-05-04T01:58:00.642Z,4.93
2023-05-04T02:00:28.623Z,4.93
2023-05-04T02:02:55.640Z,4.57
2023-05-04T02:05:22.722Z,4.97
2023-05-04T02:07:49.738Z,4.60
2023-05-04T02:10:16.857Z,4.68
2023-05-04T02:12:43.932Z,4.65
2023-05-04T02:15:11.713Z,4.70
2023-05-04T02:17:38.787Z,5.38
2023-05-04T02:20:07.208Z,4.75
2023-05-04T02:22:36.747Z,4.85
2023-05-04T02:25:04.123Z,4.40
2023-05-04T02:27:31.652Z,5.00
2023-05-04T02:29:59.213Z,5.07
2023-05-04T02:32:26.850Z,4.90
2023-05-04T02:34:54.084Z,5.40
2023-05-04T02:37:21.127Z,5.35
2023-05-04T02:39:48.218Z,5.40
2023-05-04T02:42:15.297Z,5.45
2023-05-04T02:44:42.364Z,4.93
2023-05-04T02:47:09.770Z,4.40
2023-05-04T02:49:36.957Z,5.85
2023-05-04T02:52:04.161Z,5.30
2023-05-04T02:54:31.189Z,5.15
2023-05-04T02:56:58.263Z,5.45
2023-05-04T02:59:25.227Z,4.82
2023-05-04T03:01:52.421Z,5.70
2023-05-04T03:04:19.683Z,5.35
2023-05-04T03:06:47.538Z,5.75
2023-05-04T03:09:14.556Z,5.72
2023-05-04T03:11:41.745Z,5.45
2023-05-04T03:14:08.801Z,6.05
2023-05-04T03:16:36.011Z,4.97
2023-05-04T03:19:03.118Z,5.55
2023-05-04T03:21:30.593Z,5.28
2023-05-04T03:23:58.961Z,5.75
2023-05-04T03:26:25.956Z,5.25
2023-05-04T03:28:53.262Z,5.32
2023-05-04T03:31:20.281Z,5.55
2023-05-04T03:33:47.428Z,5.38
2023-05-04T03:36:14.519Z,5.53
2023-05-04T03:38:42.247Z,6.90
2023-05-04T03:41:10.729Z,5.78
2023-05-04T03:43:37.674Z,5.90
2023-05-04T03:46:04.769Z,5.43
2023-05-04T03:48:31.828Z,6.00
2023-05-04T03:50:59.042Z,5.13
2023-05-04T03:53:29.131Z,5.90
2023-05-04T03:55:56.161Z,5.78
2023-05-04T03:58:23.219Z,5.40
2023-05-04T04:00:50.249Z,5.78
2023-05-04T04:03:17.453Z,5.93
2023-05-04T04:05:44.908Z,5.80
2023-05-04T04:08:12.070Z,6.37
2023-05-04T04:10:39.085Z,6.17
2023-05-04T04:13:06.364Z,5.80
2023-05-04T04:15:34.629Z,6.25
2023-05-04T04:18:01.859Z,5.93
2023-05-04T04:20:29.052Z,5.30
2023-05-04T04:22:56.334Z,6.03
2023-05-04T04:25:24.302Z,5.85
2023-05-04T04:27:51.836Z,6.35
2023-05-04T04:30:19.079Z,6.07
2023-05-04T04:32:47.123Z,5.97
2023-05-04T04:35:14.426Z,6.05
2023-05-04T04:37:41.604Z,6.57
2023-05-04T04:40:09.932Z,5.90
2023-05-04T04:42:37.025Z,6.07
2023-05-04T04:45:07.159Z,6.00
2023-05-04T04:47:36.315Z,5.78
2023-05-04T04:50:05.005Z,5.80
2023-05-04T04:52:33.541Z,5.57
2023-05-04T04:55:01.402Z,5.57
2023-05-04T04:57:30.526Z,5.47
2023-05-04T04:59:58.701Z,5.70
2023-05-04T05:02:26.707Z,5.70
2023-05-04T05:04:54.563Z,6.10
2023-05-04T05:07:21.743Z,5.85
2023-05-04T05:09:49.035Z,6.28
2023-05-04T05:12:17.254Z,5.90
2023-05-04T05:14:45.765Z,6.32
2023-05-04T05:17:12.896Z,5.63
2023-05-04T05:19:42.105Z,5.82
2023-05-04T05:22:09.416Z,5.65
2023-05-04T05:24:36.468Z,6.50
2023-05-04T05:27:06.500Z,5.85
2023-05-04T05:29:33.591Z,6.20
2023-05-04T05:32:00.591Z,6.18
2023-05-04T05:34:27.548Z,6.43
2023-05-04T05:36:54.705Z,6.00
2023-05-04T05:39:21.961Z,6.07
2023-05-04T05:41:49.022Z,6.13
2023-05-04T05:44:16.163Z,5.55
2023-05-04T05:46:45.845Z,5.40
2023-05-04T05:49:12.928Z,5.40
2023-05-04T05:51:39.885Z,4.93
2023-05-04T05:54:07.208Z,5.63
2023-05-04T05:56:34.236Z,5.78
2023-05-04T05:59:01.258Z,5.53
2023-05-04T06:01:28.226Z,5.00
2023-05-04T06:03:55.815Z,5.43
2023-05-04T06:06:22.971Z,6.25
2023-05-04T06:08:49.978Z,5.45
2023-05-04T06:11:17.204Z,5.72
2023-05-04T06:13:44.190Z,5.80
2023-05-04T06:16:12.075Z,5.32
2023-05-04T06:18:39.138Z,5.05
2023-05-04T06:21:06.398Z,4.97
2023-05-04T06:23:33.856Z,5.35
2023-05-04T06:26:00.962Z,5.00
2023-05-04T06:28:28.017Z,5.07
2023-05-04T06:30:55.112Z,5.05
2023-05-04T06:33:22.363Z,4.97
2023-05-04T06:35:49.533Z,4.78
2023-05-04T06:38:16.616Z,5.32
2023-05-04T06:40:44.949Z,4.80
2023-05-04T06:43:14.726Z,5.10
2023-05-04T06:45:41.760Z,4.85
2023-05-04T06:48:08.909Z,5.13
2023-05-04T06:50:36.239Z,4.63
2023-05-04T06:53:11.765Z,5.00
2023-05-04T06:55:38.931Z,4.30
2023-05-04T06:58:08.422Z,4.45
2023-05-04T07:00:36.276Z,4.57
2023-05-04T07:03:03.873Z,4.65
2023-05-04T07:05:34.043Z,4.47
2023-05-04T07:08:01.958Z,4.00
2023-05-04T07:10:29.236Z,4.15
2023-05-04T07:12:56.385Z,4.43
2023-05-04T07:15:23.425Z,4.07
2023-05-04T07:17:50.868Z,4.38
2023-05-04T07:20:17.972Z,4.55
2023-05-04T07:22:45.056Z,4.40
2023-05-04T07:25:12.284Z,4.60
2023-05-04T07:27:39.859Z,4.00
2023-05-04T07:30:08.548Z,4.57
2023-05-04T07:32:35.749Z,3.80
2023-05-04T07:35:02.755Z,3.80
2023-05-04T07:37:30.056Z,4.32
2023-05-04T07:40:00.193Z,3.97
2023-05-04T07:42:29.005Z,4.10
2023-05-04T07:44:55.961Z,4.18
2023-05-04T07:47:24.385Z,4.10
2023-05-04T07:49:51.732Z,3.95
2023-05-04T07:52:18.756Z,3.90
2023-05-04T07:54:45.784Z,4.00
2023-05-04T07:57:12.795Z,4.18
2023-05-04T07:59:39.867Z,3.63
2023-05-04T08:02:06.929Z,4.25
2023-05-04T08:04:33.968Z,4.25
2023-05-04T08:07:01.648Z,3.63
2023-05-04T08:09:28.661Z,3.83
2023-05-04T08:11:55.937Z,3.70
2023-05-04T08:14:23.076Z,3.88
2023-05-04T08:16:50.112Z,3.20
2023-05-04T08:19:18.883Z,3.60
2023-05-04T08:21:45.856Z,3.13
2023-05-04T08:24:13.104Z,3.17
2023-05-04T08:26:41.378Z,3.22
2023-05-04T08:29:10.768Z,3.13
2023-05-04T08:31:38.316Z,2.83
2023-05-04T08:34:05.601Z,3.05
2023-05-04T08:36:32.663Z,3.40
2023-05-04T08:38:59.696Z,3.42
2023-05-04T08:41:26.730Z,2.90
2023-05-04T08:43:53.868Z,2.53
2023-05-04T08:46:21.368Z,3.15
2023-05-04T08:48:48.538Z,3.20
2023-05-04T08:51:16.099Z,2.72
2023-05-04T08:53:47.688Z,3.50
2023-05-04T08:56:16.819Z,3.40
2023-05-04T08:59:01.600Z,3.20
2023-05-04T09:01:29.956Z,3.15
2023-05-04T09:03:57.892Z,2.92
2023-05-04T09:06:25.515Z,3.05
2023-05-04T09:08:52.772Z,3.25
2023-05-04T09:11:19.841Z,3.05
2023-05-04T09:13:47.376Z,3.47
2023-05-04T09:16:16.249Z,3.38
2023-05-04T09:18:44.796Z,2.95
2023-05-04T09:21:12.665Z,2.80
2023-05-04T09:23:51.355Z,3.28
2023-05-04T09:26:33.202Z,3.08
2023-05-04T09:29:14.643Z,3.42
2023-05-04T09:31:47.705Z,2.80
2023-05-04T09:34:15.469Z,3.42
2023-05-04T09:36:42.636Z,3.28
2023-05-04T09:39:14.287Z,3.08
2023-05-04T09:41:42.197Z,3.00
2023-05-04T09:44:27.609Z,3.30
2023-05-04T09:46:58.965Z,3.40
2023-05-04T09:49:37.918Z,2.85
2023-05-04T09:52:06.953Z,3.15
2023-05-04T09:54:35.869Z,2.90
2023-05-04T09:57:13.062Z,3.38
2023-05-04T09:59:41.465Z,3.47
2023-05-04T10:02:21.947Z,3.90
2023-05-04T10:04:52.355Z,3.65
2023-05-04T10:07:20.897Z,3.17
2023-05-04T10:09:50.280Z,3.83
2023-05-04T10:12:17.912Z,3.28
2023-05-04T10:14:47.008Z,3.72
2023-05-04T10:17:47.714Z,4.47
2023-05-04T10:20:47.435Z,3.83
2023-05-04T10:24:08.448Z,4.38
2023-05-04T10:27:08.276Z,3.78
2023-05-04T10:29:36.517Z,3.58
2023-05-04T10:32:04.246Z,3.45
2023-05-04T10:34:35.598Z,4.38
2023-05-04T10:37:04.262Z,3.75
2023-05-04T10:39:34.274Z,3.58
2023-05-04T10:42:06.052Z,3.97
2023-05-04T10:44:51.401Z,3.35
2023-05-04T10:47:32.387Z,3.90
2023-05-04T10:50:16.033Z,3.60
2023-05-04T10:52:48.688Z,3.53
2023-05-04T10:55:16.691Z,3.53
2023-05-04T10:57:50.994Z,3.80
2023-05-04T11:00:19.240Z,3.85
2023-05-04T11:02:47.815Z,3.60
2023-05-04T11:05:20.503Z,3.53
2023-05-04T11:07:52.872Z,3.65
2023-05-04T11:10:25.575Z,3.88
2023-05-04T11:12:55.390Z,3.38
2023-05-04T11:15:22.598Z,3.65
2023-05-04T11:17:52.848Z,4.03
2023-05-04T11:20:27.496Z,3.67
2023-05-04T11:22:55.090Z,3.88
2023-05-04T11:25:29.978Z,4.00
2023-05-04T11:27:58.853Z,3.63
2023-05-04T11:30:36.578Z,3.05
2023-05-04T11:33:14.419Z,3.17
2023-05-04T11:35:45.221Z,3.03
2023-05-04T11:38:18.489Z,3.00
2023-05-04T11:40:48.869Z,3.88
2023-05-04T11:43:17.013Z,3.17
2023-05-04T11:45:46.433Z,3.25
2023-05-04T11:48:13.648Z,3.33
2023-05-04T11:50:40.875Z,2.78
2023-05-04T11:53:14.222Z,2.78
2023-05-04T11:55:42.645Z,3.17
2023-05-04T11:58:12.771Z,3.30
2023-05-04T12:00:47.062Z,3.30
2023-05-04T12:03:18.184Z,3.72
2023-05-04T12:05:51.751Z,3.13
2023-05-04T12:08:29.893Z,3.03
2023-05-04T12:11:16.516Z,3.40
2023-05-04T12:13:45.416Z,2.90
2023-05-04T12:16:18.426Z,3.00
2023-05-04T12:18:47.491Z,3.58
2023-05-04T12:21:20.029Z,2.80
2023-05-04T12:23:47.817Z,3.25
2023-05-04T12:26:18.131Z,3.17
2023-05-04T12:28:47.322Z,2.67
2023-05-04T12:31:14.507Z,2.60
2023-05-04T12:33:41.790Z,3.50
2023-05-04T12:36:10.238Z,2.90
2023-05-04T12:38:38.282Z,3.00
2023-05-04T12:41:07.503Z,3.08
2023-05-04T12:43:34.628Z,2.78
2023-05-04T12:46:01.667Z,3.13
2023-05-04T12:48:31.588Z,2.83
2023-05-04T12:51:00.371Z,2.83
2023-05-04T12:53:30.034Z,3.47
2023-05-04T12:55:57.422Z,2.97
2023-05-04T12:58:24.516Z,2.65
2023-05-04T13:00:51.896Z,2.58
2023-05-04T13:03:19.382Z,2.70
2023-05-04T13:05:48.369Z,2.80
2023-05-04T13:08:16.876Z,2.78
2023-05-04T13:10:46.475Z,2.10
2023-05-04T13:13:17.402Z,2.47
2023-05-04T13:15:45.048Z,2.60
2023-05-04T13:18:13.070Z,2.72
2023-05-04T13:20:40.835Z,2.28
2023-05-04T13:23:07.999Z,2.30
2023-05-04T13:25:35.234Z,2.55
2023-05-04T13:28:02.394Z,4.00
2023-05-04T13:30:29.913Z,2.22
2023-05-04T13:32:57.019Z,2.35
2023-05-04T13:35:24.205Z,2.38
2023-05-04T13:37:51.651Z,2.80
2023-05-04T13:40:18.790Z,2.00
2023-05-04T13:42:46.371Z,2.35
2023-05-04T13:45:13.726Z,2.30
2023-05-04T13:47:40.837Z,2.63
2023-05-04T13:50:11.151Z,2.10
2023-05-04T13:52:38.342Z,2.65
2023-05-04T13:55:06.190Z,3.42
2023-05-04T13:57:33.419Z,2.38
2023-05-04T14:02:30.629Z,2.38
2023-05-04T14:04:57.723Z,2.03
2023-05-04T14:07:24.765Z,2.40
2023-05-04T14:09:52.444Z,2.55
2023-05-04T14:12:21.267Z,2.40
2023-05-04T14:14:48.876Z,2.47
2023-05-04T14:17:15.966Z,2.38
2023-05-04T14:19:45.154Z,2.45
2023-05-04T14:22:12.630Z,1.98
2023-05-04T14:24:42.526Z,2.30
2023-05-04T14:27:09.782Z,2.95
2023-05-04T14:29:36.828Z,3.08
2023-05-04T14:32:04.378Z,2.22
2023-05-04T14:34:32.775Z,2.42
2023-05-04T14:36:59.729Z,2.30
2023-05-04T14:39:26.780Z,1.63
2023-05-04T14:41:54.032Z,2.00
2023-05-04T14:44:22.687Z,2.10
2023-05-04T14:46:49.777Z,2.40
2023-05-04T14:49:28.782Z,2.17
2023-05-04T14:52:03.826Z,2.05
2023-05-04T14:54:31.183Z,2.10
2023-05-04T14:56:59.082Z,1.90
2023-05-04T14:59:26.754Z,2.10
2023-05-04T15:01:55.001Z,2.30
2023-05-04T15:04:23.062Z,2.30
2023-05-04T15:06:50.480Z,2.05
2023-05-04T15:09:17.569Z,2.45
2023-05-04T15:11:44.558Z,2.20
2023-05-04T15:14:18.054Z,2.45
2023-05-04T15:16:47.917Z,1.98
2023-05-04T15:19:15.632Z,2.42
2023-05-04T15:21:42.880Z,2.00
2023-05-04T15:24:10.398Z,2.20
2023-05-04T15:26:37.613Z,5.25
2023-05-04T15:29:05.328Z,3.13
2023-05-04T15:31:32.565Z,2.13
2023-05-04T15:34:01.168Z,1.90
2023-05-04T15:36:28.508Z,2.03
2023-05-04T15:38:55.572Z,2.03
2023-05-04T15:41:22.876Z,1.80
2023-05-04T15:43:50.116Z,1.60
2023-05-04T15:46:17.211Z,1.90
2023-05-04T15:48:44.360Z,2.20
2023-05-04T15:51:13.344Z,2.10
2023-05-04T15:53:40.933Z,1.90
2023-05-04T15:56:08.659Z,1.63
2023-05-04T15:58:35.849Z,2.20
2023-05-04T16:01:04.313Z,2.03
2023-05-04T16:03:36.024Z,2.00
2023-05-04T16:06:05.579Z,1.80
2023-05-04T16:08:32.687Z,1.77
2023-05-04T16:10:59.712Z,2.22
2023-05-04T16:13:26.742Z,2.10
2023-05-04T16:15:54.077Z,2.22
2023-05-04T16:18:21.472Z,2.00
2023-05-04T16:20:48.949Z,2.05
2023-05-04T16:23:20.814Z,2.13
2023-05-04T16:25:51.107Z,2.03
2023-05-04T16:28:18.411Z,2.20
2023-05-04T16:30:46.011Z,1.95
2023-05-04T16:33:16.276Z,1.70
2023-05-04T16:35:43.958Z,1.70
2023-05-04T16:38:15.928Z,2.13
2023-05-04T16:40:46.842Z,2.30
2023-05-04T16:43:14.512Z,1.80
2023-05-04T16:45:44.640Z,1.95
2023-05-04T16:48:14.928Z,1.80
2023-05-04T16:50:41.978Z,1.70
2023-05-04T16:53:09.016Z,1.70
2023-05-04T16:55:36.533Z,1.70
2023-05-04T16:58:03.645Z,1.67
2023-05-04T17:00:31.727Z,1.67
2023-05-04T17:02:58.911Z,1.88
2023-05-04T17:05:26.759Z,1.60
2023-05-04T17:07:54.240Z,1.85
2023-05-04T17:10:25.267Z,1.70
2023-05-04T17:12:55.895Z,1.58
2023-05-04T17:15:23.438Z,1.80
2023-05-04T17:17:54.747Z,1.60
2023-05-04T17:20:28.818Z,1.70
2023-05-04T17:22:59.398Z,1.85
2023-05-04T17:25:27.289Z,1.98
2023-05-04T17:27:54.892Z,1.73
2023-05-04T17:30:22.268Z,1.88
2023-05-04T17:32:49.361Z,1.80
2023-05-04T17:35:25.122Z,1.88
2023-05-04T17:37:58.032Z,2.05
2023-05-04T17:40:27.750Z,1.95
2023-05-04T17:42:55.972Z,2.03
2023-05-04T17:45:23.246Z,1.90
2023-05-04T17:47:53.512Z,1.90
2023-05-04T17:50:21.322Z,2.25
2023-05-04T17:52:53.787Z,2.20
2023-05-04T17:55:23.491Z,2.03
2023-05-04T17:57:52.401Z,2.08
2023-05-04T18:00:20.114Z,2.50
2023-05-04T18:02:47.327Z,1.73
2023-05-04T18:05:14.647Z,2.42
2023-05-04T18:07:44.267Z,1.98
2023-05-04T18:10:11.854Z,2.05
2023-05-04T18:12:38.990Z,2.25
2023-05-04T18:15:09.000Z,2.17
2023-05-04T18:17:37.981Z,1.90
2023-05-04T18:20:10.542Z,1.80
2023-05-04T18:22:37.856Z,1.95
2023-05-04T18:25:05.790Z,1.75
2023-05-04T18:27:34.238Z,1.98
2023-05-04T18:30:03.470Z,1.85
2023-05-04T18:32:30.685Z,2.10
2023-05-04T18:35:01.542Z,2.03
2023-05-04T18:37:31.759Z,2.13
2023-05-04T18:39:59.378Z,1.70
2023-05-04T18:42:27.028Z,2.10
2023-05-04T18:44:54.930Z,1.90
2023-05-04T18:47:22.364Z,2.03
2023-05-04T18:49:54.739Z,1.92
2023-05-04T18:52:22.191Z,2.03
2023-05-04T18:54:51.107Z,1.80
2023-05-04T18:57:18.379Z,1.90
2023-05-04T18:59:46.260Z,1.98
2023-05-04T19:02:13.420Z,1.88
2023-05-04T19:04:40.622Z,2.17
2023-05-04T19:07:09.986Z,2.08
2023-05-04T19:09:37.581Z,2.17
2023-05-04T19:12:05.204Z,1.90
2023-05-04T19:14:32.877Z,2.47
2023-05-04T19:17:00.887Z,2.00
2023-05-04T19:19:27.989Z,2.25
2023-05-04T19:21:55.600Z,2.10
2023-05-04T19:24:22.799Z,2.00
2023-05-04T19:26:49.891Z,2.33
2023-05-04T19:29:16.921Z,2.22
2023-05-04T19:31:44.113Z,2.80
2023-05-04T19:34:11.845Z,2.50
2023-05-04T19:36:39.629Z,2.28
2023-05-04T19:39:06.876Z,2.35
2023-05-04T19:41:33.939Z,2.50
2023-05-04T19:44:01.101Z,2.50
2023-05-04T19:46:29.750Z,2.22
2023-05-04T19:48:56.951Z,2.05
2023-05-04T19:51:24.035Z,2.13
2023-05-04T19:53:51.229Z,2.42
2023-05-04T19:56:18.341Z,2.30
2023-05-04T19:58:45.419Z,2.10
2023-05-04T20:01:12.737Z,1.88
2023-05-04T20:03:39.737Z,2.35
2023-05-04T20:06:07.350Z,2.28
2023-05-04T20:08:34.549Z,2.55
2023-05-04T20:11:01.553Z,2.33
2023-05-04T20:13:28.665Z,2.45
2023-05-04T20:15:56.164Z,2.58
2023-05-04T20:18:23.442Z,2.33
2023-05-04T20:20:52.137Z,3.22
2023-05-04T20:23:19.331Z,2.42
2023-05-04T20:25:46.465Z,2.40
2023-05-04T20:28:13.555Z,2.40
2023-05-04T20:30:40.781Z,2.88
2023-05-04T20:33:07.949Z,2.88
2023-05-04T20:35:35.104Z,3.03
2023-05-04T20:38:02.552Z,2.47
2023-05-04T20:40:29.641Z,2.55
2023-05-04T20:42:56.858Z,3.00
2023-05-04T20:45:23.954Z,2.80
2023-05-04T20:47:51.099Z,3.15
2023-05-04T20:50:19.078Z,3.28
2023-05-04T20:52:46.217Z,3.10
2023-05-04T20:55:13.342Z,3.53
2023-05-04T20:57:40.396Z,2.95
2023-05-04T21:00:08.804Z,2.88
2023-05-04T21:02:36.172Z,2.95
2023-05-04T21:05:03.382Z,3.17
2023-05-04T21:07:30.465Z,3.15
2023-05-04T21:10:14.503Z,2.85
2023-05-04T21:12:41.525Z,2.65
2023-05-04T21:15:10.954Z,3.50
2023-05-04T21:17:38.148Z,2.58
2023-05-04T21:20:06.368Z,2.78
2023-05-04T21:22:33.630Z,2.85
2023-05-04T21:25:00.643Z,3.03
2023-05-04T21:27:27.634Z,2.72
2023-05-04T21:29:54.692Z,2.80
2023-05-04T21:32:21.725Z,2.70
2023-05-04T21:34:55.340Z,3.03
2023-05-04T21:37:22.345Z,3.03
2023-05-04T21:39:54.658Z,3.00
2023-05-04T21:42:22.965Z,2.85
2023-05-04T21:44:56.977Z,2.92
2023-05-04T21:47:25.157Z,3.00
2023-05-04T21:49:53.603Z,2.90
2023-05-04T21:52:21.516Z,3.03
2023-05-04T21:54:49.026Z,3.03
2023-05-04T21:57:16.242Z,3.38
2023-05-04T21:59:43.265Z,3.35
2023-05-04T22:02:10.449Z,3.45
2023-05-04T22:04:41.561Z,3.10
2023-05-04T22:07:10.961Z,3.60
2023-05-04T22:09:38.044Z,3.88
2023-05-04T22:12:05.725Z,3.78
2023-05-04T22:14:32.987Z,3.55
2023-05-04T22:17:00.376Z,2.92
2023-05-04T22:19:27.589Z,3.50
2023-05-04T22:21:55.307Z,3.47
2023-05-04T22:24:22.374Z,2.95
2023-05-04T22:26:49.416Z,3.00
2023-05-04T22:29:16.421Z,2.65
2023-05-04T22:31:43.428Z,3.30
2023-05-04T22:34:12.832Z,3.33
2023-05-04T22:36:40.010Z,3.30
2023-05-04T22:39:07.067Z,3.50
2023-05-04T22:41:34.100Z,3.38
2023-05-04T22:44:01.163Z,3.35
2023-05-04T22:46:28.134Z,3.17
2023-05-04T22:48:55.264Z,3.40
2023-05-04T22:51:23.384Z,3.97
2023-05-04T22:53:51.205Z,4.10
2023-05-04T22:56:18.317Z,4.22
2023-05-04T22:58:48.655Z,3.65
2023-05-04T23:01:15.672Z,4.63
2023-05-04T23:03:43.346Z,4.00
2023-05-04T23:06:10.495Z,4.78
2023-05-04T23:08:37.540Z,4.68
2023-05-04T23:11:08.053Z,5.07
2023-05-04T23:13:36.153Z,4.95
2023-05-04T23:16:03.958Z,5.10
2023-05-04T23:18:33.050Z,6.38
2023-05-04T23:21:00.351Z,5.22
2023-05-04T23:23:27.518Z,4.70
2023-05-04T23:25:54.551Z,5.55
2023-05-04T23:28:21.820Z,5.57
2023-05-04T23:30:49.949Z,5.65
2023-05-04T23:33:16.948Z,5.55
2023-05-04T23:35:43.961Z,5.80
2023-05-04T23:38:11.084Z,5.68
2023-05-04T23:40:38.087Z,6.05
2023-05-04T23:43:05.044Z,6.13
2023-05-04T23:45:32.338Z,5.88
2023-05-04T23:48:02.358Z,6.28
2023-05-04T23:50:29.467Z,5.97
2023-05-04T23:52:56.628Z,6.97
2023-05-04T23:55:23.671Z,6.65
2023-05-04T23:57:51.409Z,6.90
